sensor_id;sensor_type;location;lat;lon;timestamp;pressure;altitude;pressure_sealevel;temperature;humidity
61814;BME280;57055;-35.296;149.168;2022-10-04T00:00:09;95687.27;;;11.85;56.06
61814;BME280;57055;-35.296;149.168;2022-10-04T00:02:39;95684.77;;;12.10;55.71
61814;BME280;57055;-35.296;149.168;2022-10-04T00:05:16;95683.13;;;12.01;55.77
61814;BME280;57055;-35.296;149.168;2022-10-04T00:07:48;95682.02;;;12.27;55.46
61814;BME280;57055;-35.296;149.168;2022-10-04T00:10:21;95678.40;;;12.48;56.28
61814;BME280;57055;-35.296;149.168;2022-10-04T00:12:54;95680.20;;;12.31;55.63
61814;BME280;57055;-35.296;149.168;2022-10-04T00:15:28;95679.56;;;12.44;55.52
61814;BME280;57055;-35.296;149.168;2022-10-04T00:18:07;95677.74;;;12.31;55.77
61814;BME280;57055;-35.296;149.168;2022-10-04T00:21:18;95675.28;;;12.50;55.97
61814;BME280;57055;-35.296;149.168;2022-10-04T00:23:48;95673.44;;;12.60;55.43
61814;BME280;57055;-35.296;149.168;2022-10-04T00:27:17;95670.92;;;12.55;55.12
61814;BME280;57055;-35.296;149.168;2022-10-04T00:30:14;95664.45;;;12.47;54.50
61814;BME280;57055;-35.296;149.168;2022-10-04T00:32:58;95662.74;;;12.56;54.90
61814;BME280;57055;-35.296;149.168;2022-10-04T00:35:48;95657.19;;;13.02;54.66
61814;BME280;57055;-35.296;149.168;2022-10-04T00:38:25;95653.39;;;12.65;54.48
61814;BME280;57055;-35.296;149.168;2022-10-04T00:40:59;95650.78;;;12.94;54.17
61814;BME280;57055;-35.296;149.168;2022-10-04T00:43:35;95653.33;;;12.90;54.32
61814;BME280;57055;-35.296;149.168;2022-10-04T00:46:11;95659.22;;;12.87;53.15
61814;BME280;57055;-35.296;149.168;2022-10-04T00:48:44;95659.89;;;13.14;53.36
61814;BME280;57055;-35.296;149.168;2022-10-04T00:51:24;95653.26;;;13.39;53.46
61814;BME280;57055;-35.296;149.168;2022-10-04T00:54:02;95646.26;;;13.25;52.84
61814;BME280;57055;-35.296;149.168;2022-10-04T00:56:38;95643.56;;;13.37;52.50
61814;BME280;57055;-35.296;149.168;2022-10-04T00:59:33;95638.58;;;13.40;52.17
61814;BME280;57055;-35.296;149.168;2022-10-04T01:02:12;95635.36;;;13.60;50.98
61814;BME280;57055;-35.296;149.168;2022-10-04T01:04:47;95634.90;;;13.63;50.72
61814;BME280;57055;-35.296;149.168;2022-10-04T01:07:24;95630.21;;;13.72;50.72
61814;BME280;57055;-35.296;149.168;2022-10-04T01:09:58;95629.69;;;13.63;51.36
61814;BME280;57055;-35.296;149.168;2022-10-04T01:12:40;95630.52;;;13.80;51.98
61814;BME280;57055;-35.296;149.168;2022-10-04T01:15:16;95625.77;;;13.97;51.46
61814;BME280;57055;-35.296;149.168;2022-10-04T01:18:08;95626.29;;;13.86;51.35
61814;BME280;57055;-35.296;149.168;2022-10-04T01:20:39;95623.61;;;13.88;51.12
61814;BME280;57055;-35.296;149.168;2022-10-04T01:23:10;95622.65;;;14.03;51.84
61814;BME280;57055;-35.296;149.168;2022-10-04T01:25:48;95612.76;;;14.06;51.43
61814;BME280;57055;-35.296;149.168;2022-10-04T01:28:18;95611.02;;;14.04;50.51
61814;BME280;57055;-35.296;149.168;2022-10-04T01:30:47;95611.37;;;13.91;50.59
61814;BME280;57055;-35.296;149.168;2022-10-04T01:33:17;95614.53;;;13.83;50.77
61814;BME280;57055;-35.296;149.168;2022-10-04T01:35:47;95610.79;;;14.03;51.33
61814;BME280;57055;-35.296;149.168;2022-10-04T01:38:16;95609.76;;;14.05;51.11
61814;BME280;57055;-35.296;149.168;2022-10-04T01:40:48;95615.79;;;13.90;51.56
61814;BME280;57055;-35.296;149.168;2022-10-04T01:43:22;95615.52;;;14.19;51.03
61814;BME280;57055;-35.296;149.168;2022-10-04T01:45:59;95612.77;;;13.69;50.51
61814;BME280;57055;-35.296;149.168;2022-10-04T01:48:34;95609.37;;;14.14;50.48
61814;BME280;57055;-35.296;149.168;2022-10-04T01:51:07;95600.70;;;13.78;50.48
61814;BME280;57055;-35.296;149.168;2022-10-04T01:53:45;95594.36;;;14.28;50.60
61814;BME280;57055;-35.296;149.168;2022-10-04T01:56:17;95594.62;;;13.95;50.59
61814;BME280;57055;-35.296;149.168;2022-10-04T01:58:50;95589.70;;;14.01;50.70
61814;BME280;57055;-35.296;149.168;2022-10-04T02:01:26;95581.56;;;14.09;50.91
61814;BME280;57055;-35.296;149.168;2022-10-04T02:04:00;95580.50;;;14.03;50.89
61814;BME280;57055;-35.296;149.168;2022-10-04T02:06:38;95579.92;;;14.35;51.15
61814;BME280;57055;-35.296;149.168;2022-10-04T02:09:11;95577.96;;;14.27;49.92
61814;BME280;57055;-35.296;149.168;2022-10-04T02:11:43;95575.72;;;14.49;50.26
61814;BME280;57055;-35.296;149.168;2022-10-04T02:14:16;95573.46;;;14.63;50.51
61814;BME280;57055;-35.296;149.168;2022-10-04T02:16:48;95573.99;;;14.24;50.77
61814;BME280;57055;-35.296;149.168;2022-10-04T02:19:19;95583.71;;;14.54;50.56
61814;BME280;57055;-35.296;149.168;2022-10-04T02:21:49;95580.19;;;14.51;49.50
61814;BME280;57055;-35.296;149.168;2022-10-04T02:24:19;95579.17;;;14.63;48.97
61814;BME280;57055;-35.296;149.168;2022-10-04T02:26:51;95571.49;;;14.77;48.86
61814;BME280;57055;-35.296;149.168;2022-10-04T02:29:20;95565.88;;;14.82;47.50
61814;BME280;57055;-35.296;149.168;2022-10-04T02:31:51;95565.07;;;14.55;47.53
61814;BME280;57055;-35.296;149.168;2022-10-04T02:34:20;95561.31;;;14.44;48.06
61814;BME280;57055;-35.296;149.168;2022-10-04T02:36:50;95563.43;;;14.67;48.63
61814;BME280;57055;-35.296;149.168;2022-10-04T02:39:23;95564.10;;;14.72;48.29
61814;BME280;57055;-35.296;149.168;2022-10-04T02:41:59;95565.49;;;14.56;47.31
61814;BME280;57055;-35.296;149.168;2022-10-04T02:44:32;95565.72;;;14.60;47.58
61814;BME280;57055;-35.296;149.168;2022-10-04T02:47:11;95564.09;;;14.61;47.01
61814;BME280;57055;-35.296;149.168;2022-10-04T02:49:45;95561.36;;;14.67;47.03
61814;BME280;57055;-35.296;149.168;2022-10-04T02:52:20;95558.47;;;14.76;47.08
61814;BME280;57055;-35.296;149.168;2022-10-04T02:54:56;95554.21;;;14.68;47.35
61814;BME280;57055;-35.296;149.168;2022-10-04T02:57:25;95551.28;;;15.08;47.55
61814;BME280;57055;-35.296;149.168;2022-10-04T03:00:09;95545.69;;;15.23;47.46
61814;BME280;57055;-35.296;149.168;2022-10-04T03:02:41;95544.14;;;15.20;47.11
61814;BME280;57055;-35.296;149.168;2022-10-04T03:05:37;95545.75;;;15.40;46.75
61814;BME280;57055;-35.296;149.168;2022-10-04T03:08:07;95541.21;;;15.39;45.57
61814;BME280;57055;-35.296;149.168;2022-10-04T03:10:36;95534.62;;;15.11;45.51
61814;BME280;57055;-35.296;149.168;2022-10-04T03:13:05;95529.60;;;15.60;44.91
61814;BME280;57055;-35.296;149.168;2022-10-04T03:15:35;95527.05;;;15.91;45.00
61814;BME280;57055;-35.296;149.168;2022-10-04T03:18:05;95528.50;;;15.74;44.25
61814;BME280;57055;-35.296;149.168;2022-10-04T03:20:37;95521.34;;;15.37;44.21
61814;BME280;57055;-35.296;149.168;2022-10-04T03:23:08;95521.57;;;15.72;44.62
61814;BME280;57055;-35.296;149.168;2022-10-04T03:25:47;95522.56;;;15.37;45.22
61814;BME280;57055;-35.296;149.168;2022-10-04T03:28:18;95522.15;;;15.19;45.01
61814;BME280;57055;-35.296;149.168;2022-10-04T03:30:48;95519.90;;;15.41;44.87
61814;BME280;57055;-35.296;149.168;2022-10-04T03:33:19;95519.46;;;15.39;44.13
61814;BME280;57055;-35.296;149.168;2022-10-04T03:35:51;95518.78;;;15.14;44.06
61814;BME280;57055;-35.296;149.168;2022-10-04T03:38:22;95514.68;;;15.38;44.03
61814;BME280;57055;-35.296;149.168;2022-10-04T03:40:56;95516.07;;;15.67;43.78
61814;BME280;57055;-35.296;149.168;2022-10-04T03:43:27;95517.77;;;15.59;43.78
61814;BME280;57055;-35.296;149.168;2022-10-04T03:45:57;95517.58;;;15.49;43.92
61814;BME280;57055;-35.296;149.168;2022-10-04T03:48:31;95517.86;;;15.24;42.89
61814;BME280;57055;-35.296;149.168;2022-10-04T03:51:04;95514.44;;;15.16;42.86
61814;BME280;57055;-35.296;149.168;2022-10-04T03:53:36;95511.91;;;15.31;42.39
61814;BME280;57055;-35.296;149.168;2022-10-04T03:56:12;95513.72;;;15.72;43.00
61814;BME280;57055;-35.296;149.168;2022-10-04T03:58:44;95509.27;;;15.19;42.93
61814;BME280;57055;-35.296;149.168;2022-10-04T04:01:25;95511.50;;;15.10;43.34
61814;BME280;57055;-35.296;149.168;2022-10-04T04:04:03;95511.36;;;15.11;43.19
61814;BME280;57055;-35.296;149.168;2022-10-04T04:06:42;95509.32;;;15.64;42.81
61814;BME280;57055;-35.296;149.168;2022-10-04T04:09:20;95512.99;;;15.15;42.70
61814;BME280;57055;-35.296;149.168;2022-10-04T04:11:51;95510.03;;;15.06;43.60
61814;BME280;57055;-35.296;149.168;2022-10-04T04:14:25;95507.95;;;15.21;43.94
61814;BME280;57055;-35.296;149.168;2022-10-04T04:17:17;95508.31;;;15.25;44.01
61814;BME280;57055;-35.296;149.168;2022-10-04T04:19:47;95510.08;;;15.26;43.53
61814;BME280;57055;-35.296;149.168;2022-10-04T04:22:17;95511.74;;;15.49;43.47
61814;BME280;57055;-35.296;149.168;2022-10-04T04:24:47;95514.83;;;15.67;44.32
61814;BME280;57055;-35.296;149.168;2022-10-04T04:27:18;95512.06;;;15.12;44.11
61814;BME280;57055;-35.296;149.168;2022-10-04T04:29:50;95514.09;;;15.34;44.26
61814;BME280;57055;-35.296;149.168;2022-10-04T04:32:22;95513.68;;;15.05;43.88
61814;BME280;57055;-35.296;149.168;2022-10-04T04:34:56;95509.70;;;15.23;42.49
61814;BME280;57055;-35.296;149.168;2022-10-04T04:37:25;95506.35;;;14.94;42.65
61814;BME280;57055;-35.296;149.168;2022-10-04T04:39:55;95498.47;;;14.90;42.45
61814;BME280;57055;-35.296;149.168;2022-10-04T04:42:28;95494.66;;;15.56;42.63
61814;BME280;57055;-35.296;149.168;2022-10-04T04:45:02;95493.10;;;15.19;42.01
61814;BME280;57055;-35.296;149.168;2022-10-04T04:47:33;95492.91;;;15.53;41.10
61814;BME280;57055;-35.296;149.168;2022-10-04T04:50:06;95493.25;;;15.23;41.75
61814;BME280;57055;-35.296;149.168;2022-10-04T04:52:37;95491.02;;;15.48;42.02
61814;BME280;57055;-35.296;149.168;2022-10-04T04:55:13;95487.76;;;15.15;41.74
61814;BME280;57055;-35.296;149.168;2022-10-04T04:57:44;95483.66;;;15.09;41.58
61814;BME280;57055;-35.296;149.168;2022-10-04T05:00:19;95487.91;;;15.03;41.35
61814;BME280;57055;-35.296;149.168;2022-10-04T05:02:53;95489.97;;;15.07;40.00
61814;BME280;57055;-35.296;149.168;2022-10-04T05:05:25;95493.82;;;15.17;40.76
61814;BME280;57055;-35.296;149.168;2022-10-04T05:08:28;95494.95;;;15.17;41.03
61814;BME280;57055;-35.296;149.168;2022-10-04T05:11:03;95498.01;;;15.21;41.45
61814;BME280;57055;-35.296;149.168;2022-10-04T05:13:37;95499.24;;;15.30;42.96
61814;BME280;57055;-35.296;149.168;2022-10-04T05:16:12;95498.11;;;15.53;42.40
61814;BME280;57055;-35.296;149.168;2022-10-04T05:18:42;95490.97;;;15.25;42.68
61814;BME280;57055;-35.296;149.168;2022-10-04T05:21:17;95491.79;;;15.07;42.69
61814;BME280;57055;-35.296;149.168;2022-10-04T05:23:48;95492.45;;;15.09;41.72
61814;BME280;57055;-35.296;149.168;2022-10-04T05:26:25;95491.48;;;15.27;41.98
61814;BME280;57055;-35.296;149.168;2022-10-04T05:28:57;95499.24;;;15.05;42.39
61814;BME280;57055;-35.296;149.168;2022-10-04T05:31:34;95500.74;;;15.47;42.19
61814;BME280;57055;-35.296;149.168;2022-10-04T05:34:20;95504.99;;;15.21;42.53
61814;BME280;57055;-35.296;149.168;2022-10-04T05:36:59;95507.04;;;15.20;43.38
61814;BME280;57055;-35.296;149.168;2022-10-04T05:39:40;95512.06;;;15.17;42.83
61814;BME280;57055;-35.296;149.168;2022-10-04T05:42:18;95520.18;;;15.38;43.92
61814;BME280;57055;-35.296;149.168;2022-10-04T05:44:51;95523.21;;;15.35;44.33
61814;BME280;57055;-35.296;149.168;2022-10-04T05:47:22;95527.84;;;15.03;44.78
61814;BME280;57055;-35.296;149.168;2022-10-04T05:49:55;95522.32;;;14.94;44.46
61814;BME280;57055;-35.296;149.168;2022-10-04T05:52:28;95524.13;;;14.78;44.50
61814;BME280;57055;-35.296;149.168;2022-10-04T05:55:38;95521.26;;;14.98;44.18
61814;BME280;57055;-35.296;149.168;2022-10-04T05:58:25;95532.05;;;15.16;45.23
61814;BME280;57055;-35.296;149.168;2022-10-04T06:01:14;95540.15;;;14.82;45.55
61814;BME280;57055;-35.296;149.168;2022-10-04T06:04:27;95538.18;;;15.00;46.18
61814;BME280;57055;-35.296;149.168;2022-10-04T06:07:03;95540.75;;;14.98;45.94
61814;BME280;57055;-35.296;149.168;2022-10-04T06:09:50;95543.91;;;14.86;45.95
61814;BME280;57055;-35.296;149.168;2022-10-04T06:12:32;95542.77;;;14.80;45.92
61814;BME280;57055;-35.296;149.168;2022-10-04T06:15:22;95537.53;;;14.77;46.40
61814;BME280;57055;-35.296;149.168;2022-10-04T06:18:10;95538.71;;;14.74;46.75
61814;BME280;57055;-35.296;149.168;2022-10-04T06:21:18;95537.96;;;14.64;46.96
61814;BME280;57055;-35.296;149.168;2022-10-04T06:23:53;95542.52;;;14.88;46.80
61814;BME280;57055;-35.296;149.168;2022-10-04T06:26:31;95544.84;;;14.65;46.80
61814;BME280;57055;-35.296;149.168;2022-10-04T06:29:06;95556.57;;;14.58;46.71
61814;BME280;57055;-35.296;149.168;2022-10-04T06:34:18;95560.44;;;14.79;47.62
61814;BME280;57055;-35.296;149.168;2022-10-04T06:37:04;95565.82;;;14.55;47.56
61814;BME280;57055;-35.296;149.168;2022-10-04T06:41:45;95561.97;;;14.68;48.82
61814;BME280;57055;-35.296;149.168;2022-10-04T06:44:46;95566.37;;;14.11;49.25
61814;BME280;57055;-35.296;149.168;2022-10-04T06:47:31;95570.53;;;14.49;50.07
61814;BME280;57055;-35.296;149.168;2022-10-04T06:50:19;95570.45;;;14.12;49.83
61814;BME280;57055;-35.296;149.168;2022-10-04T06:53:09;95579.84;;;14.16;49.76
61814;BME280;57055;-35.296;149.168;2022-10-04T06:57:02;95583.34;;;14.28;49.78
61814;BME280;57055;-35.296;149.168;2022-10-04T06:59:47;95589.59;;;13.80;50.21
61814;BME280;57055;-35.296;149.168;2022-10-04T07:02:24;95595.95;;;13.91;50.70
61814;BME280;57055;-35.296;149.168;2022-10-04T07:04:57;95602.19;;;13.90;50.80
61814;BME280;57055;-35.296;149.168;2022-10-04T07:07:31;95608.46;;;14.06;51.19
61814;BME280;57055;-35.296;149.168;2022-10-04T07:10:22;95608.63;;;14.04;51.27
61814;BME280;57055;-35.296;149.168;2022-10-04T07:13:05;95613.31;;;13.80;50.93
61814;BME280;57055;-35.296;149.168;2022-10-04T07:15:46;95616.77;;;13.73;50.83
61814;BME280;57055;-35.296;149.168;2022-10-04T07:18:22;95617.80;;;13.92;50.99
61814;BME280;57055;-35.296;149.168;2022-10-04T07:21:01;95624.08;;;13.85;51.35
61814;BME280;57055;-35.296;149.168;2022-10-04T07:23:34;95630.21;;;13.73;51.71
61814;BME280;57055;-35.296;149.168;2022-10-04T07:26:12;95639.05;;;13.49;51.61
61814;BME280;57055;-35.296;149.168;2022-10-04T07:28:44;95638.52;;;13.57;51.79
61814;BME280;57055;-35.296;149.168;2022-10-04T07:31:20;95637.97;;;13.49;51.73
61814;BME280;57055;-35.296;149.168;2022-10-04T07:33:53;95644.19;;;13.49;51.45
61814;BME280;57055;-35.296;149.168;2022-10-04T07:36:28;95657.13;;;13.28;51.64
61814;BME280;57055;-35.296;149.168;2022-10-04T07:39:03;95659.10;;;13.32;51.37
61814;BME280;57055;-35.296;149.168;2022-10-04T07:41:36;95662.70;;;13.20;51.63
61814;BME280;57055;-35.296;149.168;2022-10-04T07:44:18;95671.21;;;13.13;52.05
61814;BME280;57055;-35.296;149.168;2022-10-04T07:46:54;95677.99;;;13.12;52.46
61814;BME280;57055;-35.296;149.168;2022-10-04T07:49:26;95686.92;;;13.04;52.65
61814;BME280;57055;-35.296;149.168;2022-10-04T07:52:09;95691.25;;;12.95;52.78
61814;BME280;57055;-35.296;149.168;2022-10-04T07:54:46;95707.32;;;13.37;52.34
61814;BME280;57055;-35.296;149.168;2022-10-04T07:57:29;95710.67;;;12.90;52.13
61814;BME280;57055;-35.296;149.168;2022-10-04T08:00:04;95717.81;;;12.72;52.67
61814;BME280;57055;-35.296;149.168;2022-10-04T08:02:45;95727.83;;;12.67;52.39
61814;BME280;57055;-35.296;149.168;2022-10-04T08:05:22;95735.19;;;12.92;52.67
61814;BME280;57055;-35.296;149.168;2022-10-04T08:08:10;95730.44;;;12.77;53.10
61814;BME280;57055;-35.296;149.168;2022-10-04T08:10:52;95727.07;;;12.75;53.13
61814;BME280;57055;-35.296;149.168;2022-10-04T08:13:30;95732.82;;;12.71;53.56
61814;BME280;57055;-35.296;149.168;2022-10-04T08:16:10;95733.14;;;12.63;53.53
61814;BME280;57055;-35.296;149.168;2022-10-04T08:18:55;95730.66;;;12.79;53.81
61814;BME280;57055;-35.296;149.168;2022-10-04T08:21:33;95734.10;;;12.54;53.91
61814;BME280;57055;-35.296;149.168;2022-10-04T08:24:17;95736.99;;;12.72;54.00
61814;BME280;57055;-35.296;149.168;2022-10-04T08:27:00;95741.42;;;12.59;54.36
61814;BME280;57055;-35.296;149.168;2022-10-04T08:29:45;95745.94;;;12.55;54.37
61814;BME280;57055;-35.296;149.168;2022-10-04T08:32:28;95749.18;;;12.52;54.25
61814;BME280;57055;-35.296;149.168;2022-10-04T08:35:42;95755.05;;;12.50;54.27
61814;BME280;57055;-35.296;149.168;2022-10-04T08:38:33;95753.35;;;12.52;54.28
61814;BME280;57055;-35.296;149.168;2022-10-04T08:41:44;95755.27;;;12.45;54.60
61814;BME280;57055;-35.296;149.168;2022-10-04T08:44:45;95764.01;;;12.46;54.29
61814;BME280;57055;-35.296;149.168;2022-10-04T08:49:54;95765.82;;;12.52;54.87
61814;BME280;57055;-35.296;149.168;2022-10-04T08:52:43;95770.25;;;12.47;54.58
61814;BME280;57055;-35.296;149.168;2022-10-04T08:56:00;95782.23;;;12.14;54.71
61814;BME280;57055;-35.296;149.168;2022-10-04T08:58:52;95788.74;;;12.38;54.77
61814;BME280;57055;-35.296;149.168;2022-10-04T09:01:45;95793.50;;;12.32;54.95
61814;BME280;57055;-35.296;149.168;2022-10-04T09:06:37;95815.96;;;12.55;55.65
61814;BME280;57055;-35.296;149.168;2022-10-04T09:10:34;95818.18;;;12.30;55.23
61814;BME280;57055;-35.296;149.168;2022-10-04T09:13:16;95806.24;;;12.24;55.40
61814;BME280;57055;-35.296;149.168;2022-10-04T09:15:54;95803.40;;;12.15;55.84
61814;BME280;57055;-35.296;149.168;2022-10-04T09:18:44;95810.57;;;12.14;55.91
61814;BME280;57055;-35.296;149.168;2022-10-04T09:21:27;95819.21;;;12.14;55.78
61814;BME280;57055;-35.296;149.168;2022-10-04T09:24:52;95826.68;;;12.09;56.10
61814;BME280;57055;-35.296;149.168;2022-10-04T09:27:41;95827.19;;;12.02;56.19
61814;BME280;57055;-35.296;149.168;2022-10-04T09:30:18;95835.90;;;11.96;56.35
61814;BME280;57055;-35.296;149.168;2022-10-04T09:33:19;95847.09;;;12.19;56.14
61814;BME280;57055;-35.296;149.168;2022-10-04T09:36:04;95846.76;;;12.10;56.44
61814;BME280;57055;-35.296;149.168;2022-10-04T09:39:09;95856.82;;;11.82;56.49
61814;BME280;57055;-35.296;149.168;2022-10-04T09:41:54;95869.13;;;12.03;56.08
61814;BME280;57055;-35.296;149.168;2022-10-04T09:45:54;95873.23;;;12.04;55.88
61814;BME280;57055;-35.296;149.168;2022-10-04T09:48:31;95877.17;;;11.86;55.68
61814;BME280;57055;-35.296;149.168;2022-10-04T09:51:13;95873.04;;;11.81;55.75
61814;BME280;57055;-35.296;149.168;2022-10-04T09:53:58;95871.92;;;11.72;55.62
61814;BME280;57055;-35.296;149.168;2022-10-04T09:56:49;95874.04;;;11.88;55.86
61814;BME280;57055;-35.296;149.168;2022-10-04T09:59:32;95878.53;;;11.61;55.86
61814;BME280;57055;-35.296;149.168;2022-10-04T10:02:23;95892.82;;;11.64;56.01
61814;BME280;57055;-35.296;149.168;2022-10-04T10:05:13;95896.37;;;11.57;56.06
61814;BME280;57055;-35.296;149.168;2022-10-04T10:07:57;95895.65;;;11.59;56.16
61814;BME280;57055;-35.296;149.168;2022-10-04T10:10:38;95894.49;;;11.63;56.14
61814;BME280;57055;-35.296;149.168;2022-10-04T10:14:05;95892.58;;;11.59;56.40
61814;BME280;57055;-35.296;149.168;2022-10-04T10:16:52;95895.73;;;11.64;56.38
61814;BME280;57055;-35.296;149.168;2022-10-04T10:19:51;95898.64;;;11.58;56.36
61814;BME280;57055;-35.296;149.168;2022-10-04T10:22:43;95905.30;;;11.84;56.50
61814;BME280;57055;-35.296;149.168;2022-10-04T10:25:26;95913.57;;;11.79;56.64
61814;BME280;57055;-35.296;149.168;2022-10-04T10:28:22;95918.51;;;11.53;57.01
61814;BME280;57055;-35.296;149.168;2022-10-04T10:31:06;95916.24;;;11.79;57.02
61814;BME280;57055;-35.296;149.168;2022-10-04T10:34:59;95915.45;;;11.83;56.99
61814;BME280;57055;-35.296;149.168;2022-10-04T10:37:46;95915.71;;;11.56;57.13
61814;BME280;57055;-35.296;149.168;2022-10-04T10:41:05;95915.80;;;11.72;57.32
61814;BME280;57055;-35.296;149.168;2022-10-04T10:43:50;95921.06;;;11.36;57.30
61814;BME280;57055;-35.296;149.168;2022-10-04T10:46:34;95921.92;;;11.56;57.39
61814;BME280;57055;-35.296;149.168;2022-10-04T10:49:29;95928.35;;;11.57;57.54
61814;BME280;57055;-35.296;149.168;2022-10-04T10:53:06;95934.89;;;11.65;57.48
61814;BME280;57055;-35.296;149.168;2022-10-04T10:56:41;95942.92;;;11.69;57.74
61814;BME280;57055;-35.296;149.168;2022-10-04T11:01:23;95945.37;;;11.80;57.99
61814;BME280;57055;-35.296;149.168;2022-10-04T11:04:46;95943.97;;;11.76;57.43
61814;BME280;57055;-35.296;149.168;2022-10-04T11:07:49;95942.07;;;11.98;57.71
61814;BME280;57055;-35.296;149.168;2022-10-04T11:12:59;95949.81;;;11.80;58.25
61814;BME280;57055;-35.296;149.168;2022-10-04T11:15:42;95957.79;;;11.46;57.86
61814;BME280;57055;-35.296;149.168;2022-10-04T11:19:03;95970.80;;;11.41;58.10
61814;BME280;57055;-35.296;149.168;2022-10-04T11:23:12;95981.41;;;11.46;58.48
61814;BME280;57055;-35.296;149.168;2022-10-04T11:27:47;95991.09;;;11.95;58.56
61814;BME280;57055;-35.296;149.168;2022-10-04T11:30:20;95993.04;;;11.54;58.24
61814;BME280;57055;-35.296;149.168;2022-10-04T11:33:16;95991.84;;;11.52;58.36
61814;BME280;57055;-35.296;149.168;2022-10-04T11:36:54;95994.53;;;11.23;58.63
61814;BME280;57055;-35.296;149.168;2022-10-04T11:39:42;95997.50;;;11.47;58.79
61814;BME280;57055;-35.296;149.168;2022-10-04T11:42:25;96000.84;;;11.37;58.90
61814;BME280;57055;-35.296;149.168;2022-10-04T11:45:14;95999.95;;;11.38;58.77
61814;BME280;57055;-35.296;149.168;2022-10-04T11:47:59;96000.97;;;11.27;59.07
61814;BME280;57055;-35.296;149.168;2022-10-04T11:50:37;95986.72;;;11.32;59.30
61814;BME280;57055;-35.296;149.168;2022-10-04T11:53:33;95989.63;;;11.30;59.18
61814;BME280;57055;-35.296;149.168;2022-10-04T11:56:26;95991.67;;;11.06;59.14
61814;BME280;57055;-35.296;149.168;2022-10-04T11:59:11;95996.13;;;11.39;58.99
61814;BME280;57055;-35.296;149.168;2022-10-04T12:03:07;96005.10;;;11.03;58.84
61814;BME280;57055;-35.296;149.168;2022-10-04T12:05:57;96008.78;;;10.98;58.59
61814;BME280;57055;-35.296;149.168;2022-10-04T12:08:41;96012.59;;;11.20;58.02
61814;BME280;57055;-35.296;149.168;2022-10-04T12:11:30;96014.83;;;11.03;57.66
61814;BME280;57055;-35.296;149.168;2022-10-04T12:14:09;96026.43;;;10.98;57.84
61814;BME280;57055;-35.296;149.168;2022-10-04T12:16:57;96026.62;;;11.02;57.54
61814;BME280;57055;-35.296;149.168;2022-10-04T12:19:53;96032.35;;;11.07;57.52
61814;BME280;57055;-35.296;149.168;2022-10-04T12:22:52;96038.61;;;10.99;56.93
61814;BME280;57055;-35.296;149.168;2022-10-04T12:25:51;96041.77;;;10.83;56.62
61814;BME280;57055;-35.296;149.168;2022-10-04T12:28:48;96034.32;;;10.87;56.43
61814;BME280;57055;-35.296;149.168;2022-10-04T12:31:27;96031.74;;;10.61;56.48
61814;BME280;57055;-35.296;149.168;2022-10-04T12:34:12;96027.25;;;10.56;56.07
61814;BME280;57055;-35.296;149.168;2022-10-04T12:37:19;96025.94;;;10.47;56.39
61814;BME280;57055;-35.296;149.168;2022-10-04T12:40:06;96021.82;;;10.97;56.46
61814;BME280;57055;-35.296;149.168;2022-10-04T12:42:48;96027.23;;;10.65;56.51
61814;BME280;57055;-35.296;149.168;2022-10-04T12:45:32;96018.36;;;10.33;56.62
61814;BME280;57055;-35.296;149.168;2022-10-04T12:48:16;96018.94;;;10.43;56.55
61814;BME280;57055;-35.296;149.168;2022-10-04T12:50:59;96006.45;;;10.31;56.63
61814;BME280;57055;-35.296;149.168;2022-10-04T12:53:37;96003.72;;;10.27;56.71
61814;BME280;57055;-35.296;149.168;2022-10-04T12:56:17;96007.86;;;10.41;57.06
61814;BME280;57055;-35.296;149.168;2022-10-04T12:59:05;96005.34;;;10.41;57.13
61814;BME280;57055;-35.296;149.168;2022-10-04T13:01:44;96002.39;;;10.68;57.02
61814;BME280;57055;-35.296;149.168;2022-10-04T13:04:31;96003.51;;;10.48;56.96
61814;BME280;57055;-35.296;149.168;2022-10-04T13:07:18;96001.73;;;10.20;57.05
61814;BME280;57055;-35.296;149.168;2022-10-04T13:09:56;96005.47;;;10.46;56.79
61814;BME280;57055;-35.296;149.168;2022-10-04T13:12:39;96007.82;;;10.44;56.84
61814;BME280;57055;-35.296;149.168;2022-10-04T13:15:22;96007.21;;;10.52;56.75
61814;BME280;57055;-35.296;149.168;2022-10-04T13:18:01;96005.44;;;10.15;56.62
61814;BME280;57055;-35.296;149.168;2022-10-04T13:20:48;96009.09;;;10.47;56.57
61814;BME280;57055;-35.296;149.168;2022-10-04T13:23:29;96006.31;;;10.49;56.65
61814;BME280;57055;-35.296;149.168;2022-10-04T13:26:16;96008.17;;;10.26;56.65
61814;BME280;57055;-35.296;149.168;2022-10-04T13:28:55;96011.59;;;10.54;56.60
61814;BME280;57055;-35.296;149.168;2022-10-04T13:31:32;96017.46;;;10.19;56.45
61814;BME280;57055;-35.296;149.168;2022-10-04T13:34:13;96015.17;;;10.70;56.27
61814;BME280;57055;-35.296;149.168;2022-10-04T13:36:56;96022.37;;;10.24;56.19
61814;BME280;57055;-35.296;149.168;2022-10-04T13:39:43;96026.51;;;10.68;56.13
61814;BME280;57055;-35.296;149.168;2022-10-04T13:42:27;96030.12;;;10.22;55.97
61814;BME280;57055;-35.296;149.168;2022-10-04T13:45:21;96030.67;;;10.16;55.52
61814;BME280;57055;-35.296;149.168;2022-10-04T13:48:14;96030.74;;;10.40;55.43
61814;BME280;57055;-35.296;149.168;2022-10-04T13:51:16;96028.61;;;10.58;55.48
61814;BME280;57055;-35.296;149.168;2022-10-04T13:53:54;96028.38;;;10.19;55.36
61814;BME280;57055;-35.296;149.168;2022-10-04T13:56:48;96031.97;;;10.49;55.15
61814;BME280;57055;-35.296;149.168;2022-10-04T13:59:28;96026.46;;;10.18;54.96
61814;BME280;57055;-35.296;149.168;2022-10-04T14:02:17;96024.62;;;10.70;54.92
61814;BME280;57055;-35.296;149.168;2022-10-04T14:05:15;96021.44;;;10.38;55.26
61814;BME280;57055;-35.296;149.168;2022-10-04T14:08:07;96020.94;;;10.48;55.10